Terminal Aerodrome Forecast
Issued by NWS Cleveland, OH

Home | Current Version | Previous Version | Graphics & Text | Print | Product List | Glossary On
Versions: 1 2 3 4 5 6 7 8 9 10 11 12 13 14 15 16 17 18 19
000
FTUS41 KCLE 291100 RRA
TAFERI
TAF
KERI 291142Z 2912/3012 16018G35KT P6SM OVC050
      TEMPO 2914/2918 -FZDZPL BKN025 OVC035
     FM291800 19015G25KT 3SM -PLDZ BR SCT008 OVC015
      TEMPO 2921/2923 2SM -RASN OVC008
     FM292300 27015G25KT 3/4SM -SN BR OVC004
     FM300400 30015G25KT 3SM -SN BKN008 OVC015=

USA.gov is the U.S. government's official web portal to all federal, state and local government web resources and services.